Time;durP1;ratioP1;P1;durP2;ratioP2;P2;SDS_P1;SDS_P2;PMS_P1;PMS_P2;Temp;Humidity;BMP_temperature;BMP_pressure;BME280_temperature;BME280_humidity;BME280_pressure;Samples;Min_cycle;Max_cycle;Signal;HPM_P1;HPM_P2
2021/07/01 00:01:04;;;;;;;25.20;9.80;;;;;;;;;;5066991;28;20039;-72
2021/07/01 00:03:30;;;;;;;24.77;9.48;;;;;;;;;;5067136;28;20040;-72
2021/07/01 00:05:57;;;;;;;23.08;10.00;;;;;;;;;;5065887;28;20024;-73
2021/07/01 00:08:23;;;;;;;24.13;9.43;;;;;;;;;;5066054;28;20114;-72
2021/07/01 00:10:49;;;;;;;22.50;10.18;;;;;;;;;;5065127;28;20024;-73
2021/07/01 00:13:16;;;;;;;27.05;10.85;;;;;;;;;;5067583;28;20466;-72
2021/07/01 00:15:42;;;;;;;32.88;10.43;;;;;;;;;;5075147;28;20054;-72
2021/07/01 00:18:08;;;;;;;23.60;10.30;;;;;;;;;;5066666;28;20106;-73
2021/07/01 00:20:34;;;;;;;26.63;10.02;;;;;;;;;;5077800;28;20046;-72
2021/07/01 00:23:00;;;;;;;25.88;12.20;;;;;;;;;;5049875;28;20028;-73
2021/07/01 00:25:26;;;;;;;23.48;12.65;;;;;;;;;;5063650;28;20085;-72
2021/07/01 00:27:53;;;;;;;23.65;10.77;;;;;;;;;;5067694;28;20042;-72
2021/07/01 00:30:20;;;;;;;25.42;11.63;;;;;;;;;;5068610;28;20020;-72
2021/07/01 00:32:46;;;;;;;26.77;11.23;;;;;;;;;;5071869;28;20050;-72
2021/07/01 00:35:12;;;;;;;21.65;10.05;;;;;;;;;;5067776;28;20025;-73
2021/07/01 00:37:39;;;;;;;29.88;11.40;;;;;;;;;;5064710;28;20025;-73
2021/07/01 00:40:06;;;;;;;26.02;10.55;;;;;;;;;;5065395;28;20063;-72
2021/07/01 00:42:33;;;;;;;27.85;10.70;;;;;;;;;;5066619;28;20021;-72
2021/07/01 00:44:59;;;;;;;22.40;10.98;;;;;;;;;;5066248;28;20036;-73
2021/07/01 00:47:25;;;;;;;29.25;11.50;;;;;;;;;;5064665;28;20041;-72
2021/07/01 00:49:52;;;;;;;29.35;11.13;;;;;;;;;;5066143;28;20476;-72
2021/07/01 00:52:18;;;;;;;26.05;10.70;;;;;;;;;;5066172;28;20147;-74
2021/07/01 00:54:44;;;;;;;26.60;10.68;;;;;;;;;;5076414;28;20021;-73
2021/07/01 00:57:11;;;;;;;20.67;10.25;;;;;;;;;;5065671;28;20085;-72
2021/07/01 00:59:40;;;;;;;29.42;11.00;;;;;;;;;;5071072;28;20033;-72
2021/07/01 01:02:06;;;;;;;22.70;10.05;;;;;;;;;;5066479;28;20165;-73
2021/07/01 01:04:33;;;;;;;24.80;10.73;;;;;;;;;;5065536;28;20437;-73
2021/07/01 01:07:00;;;;;;;29.52;10.75;;;;;;;;;;5064565;28;20069;-73
2021/07/01 01:09:26;;;;;;;19.08;9.75;;;;;;;;;;5076141;28;20116;-72
2021/07/01 01:11:52;;;;;;;25.85;11.20;;;;;;;;;;5047999;28;20500;-72
2021/07/01 01:14:18;;;;;;;24.85;10.93;;;;;;;;;;5071695;28;20425;-72
2021/07/01 01:16:44;;;;;;;30.92;10.18;;;;;;;;;;5065614;28;20905;-72
2021/07/01 01:19:10;;;;;;;30.88;10.38;;;;;;;;;;5057767;28;20017;-72
2021/07/01 01:21:37;;;;;;;53.35;12.02;;;;;;;;;;5064530;28;20020;-73
2021/07/01 01:24:04;;;;;;;30.23;10.25;;;;;;;;;;5066245;28;20453;-72
2021/07/01 01:26:31;;;;;;;24.85;10.02;;;;;;;;;;5065180;28;20063;-73
2021/07/01 01:28:57;;;;;;;29.25;10.98;;;;;;;;;;5071109;28;20050;-72
2021/07/01 01:31:24;;;;;;;26.50;10.27;;;;;;;;;;5063905;28;20035;-73
2021/07/01 01:33:51;;;;;;;25.42;11.02;;;;;;;;;;5065805;28;20040;-72
2021/07/01 01:36:17;;;;;;;21.67;9.70;;;;;;;;;;5075391;28;20922;-72
2021/07/01 01:38:43;;;;;;;25.35;10.85;;;;;;;;;;5064421;28;20541;-74
2021/07/01 01:41:09;;;;;;;21.15;10.60;;;;;;;;;;5064710;28;20031;-73
2021/07/01 01:43:35;;;;;;;27.02;10.98;;;;;;;;;;5065584;28;20078;-72
2021/07/01 01:46:01;;;;;;;26.77;10.50;;;;;;;;;;5064716;28;20031;-72
2021/07/01 01:48:27;;;;;;;22.85;10.43;;;;;;;;;;5066585;28;20043;-73
2021/07/01 01:50:54;;;;;;;24.88;11.05;;;;;;;;;;5064238;28;20496;-72
2021/07/01 01:53:20;;;;;;;22.25;11.40;;;;;;;;;;5064839;28;20865;-73
2021/07/01 01:55:46;;;;;;;18.40;11.38;;;;;;;;;;5065102;28;20499;-73
2021/07/01 01:58:12;;;;;;;26.55;11.32;;;;;;;;;;5039151;28;20036;-73
2021/07/01 02:00:38;;;;;;;24.83;12.00;;;;;;;;;;5064229;28;20786;-73
2021/07/01 02:03:05;;;;;;;26.55;12.02;;;;;;;;;;5064743;28;20029;-72
2021/07/01 02:05:31;;;;;;;24.20;11.80;;;;;;;;;;5065415;28;20039;-72
2021/07/01 02:07:57;;;;;;;25.33;11.98;;;;;;;;;;5064920;28;20394;-73
2021/07/01 02:10:25;;;;;;;22.67;10.90;;;;;;;;;;5065568;28;20480;-72
2021/07/01 02:12:52;;;;;;;27.40;12.10;;;;;;;;;;5071040;28;20074;-73
2021/07/01 02:15:20;;;;;;;27.40;10.60;;;;;;;;;;5068456;28;20040;-73
2021/07/01 02:17:47;;;;;;;25.77;11.55;;;;;;;;;;5067177;28;20029;-72
2021/07/01 02:20:14;;;;;;;24.60;11.80;;;;;;;;;;5069127;28;20029;-73
2021/07/01 02:22:41;;;;;;;21.45;11.18;;;;;;;;;;5066975;28;20119;-72
2021/07/01 02:25:08;;;;;;;25.77;11.55;;;;;;;;;;5068720;28;20025;-73
2021/07/01 02:27:34;;;;;;;23.60;11.23;;;;;;;;;;5067830;28;20052;-72
2021/07/01 02:30:01;;;;;;;22.00;10.60;;;;;;;;;;5068351;28;20048;-72
2021/07/01 02:32:27;;;;;;;27.88;11.85;;;;;;;;;;5071308;28;20032;-72
2021/07/01 02:34:53;;;;;;;24.33;11.55;;;;;;;;;;5068234;28;20425;-72
2021/07/01 02:37:20;;;;;;;25.00;11.18;;;;;;;;;;5067769;28;20016;-72
2021/07/01 02:39:46;;;;;;;26.88;12.35;;;;;;;;;;5067957;28;20032;-72
2021/07/01 02:42:13;;;;;;;26.35;10.80;;;;;;;;;;5069016;28;20065;-72
2021/07/01 02:44:39;;;;;;;22.83;11.02;;;;;;;;;;5067496;28;20036;-73
2021/07/01 02:47:05;;;;;;;28.73;12.80;;;;;;;;;;5068587;28;20476;-74
2021/07/01 02:49:32;;;;;;;27.67;11.40;;;;;;;;;;5067623;28;20028;-72
2021/07/01 02:51:58;;;;;;;27.75;12.02;;;;;;;;;;5066644;28;20039;-72
2021/07/01 02:54:24;;;;;;;19.55;10.63;;;;;;;;;;5068113;28;20111;-73
2021/07/01 02:56:51;;;;;;;23.42;10.80;;;;;;;;;;5067764;28;20025;-72
2021/07/01 02:59:19;;;;;;;28.80;11.80;;;;;;;;;;5068709;28;20476;-72
2021/07/01 03:01:48;;;;;;;23.30;10.57;;;;;;;;;;5063541;28;20404;-72
2021/07/01 03:04:14;;;;;;;23.90;12.00;;;;;;;;;;5051157;28;20403;-72
2021/07/01 03:06:41;;;;;;;25.58;11.07;;;;;;;;;;5062774;28;20465;-72
2021/07/01 03:09:08;;;;;;;26.27;11.02;;;;;;;;;;5062029;28;20029;-71
2021/07/01 03:11:34;;;;;;;22.98;11.35;;;;;;;;;;5044879;28;20039;-72
2021/07/01 03:14:00;;;;;;;26.35;10.80;;;;;;;;;;5062851;28;20025;-72
2021/07/01 03:16:27;;;;;;;22.67;11.10;;;;;;;;;;5067295;28;20028;-72
2021/07/01 03:18:54;;;;;;;21.40;10.95;;;;;;;;;;5066540;28;21005;-73
2021/07/01 03:21:20;;;;;;;26.58;11.32;;;;;;;;;;5063485;28;20031;-72
2021/07/01 03:23:47;;;;;;;28.45;11.27;;;;;;;;;;5063090;28;20044;-72
2021/07/01 03:26:13;;;;;;;24.75;11.25;;;;;;;;;;5061073;28;20020;-72
2021/07/01 03:28:40;;;;;;;24.45;10.95;;;;;;;;;;5064169;28;20657;-72
2021/07/01 03:31:06;;;;;;;26.90;12.55;;;;;;;;;;5062937;28;20024;-72
2021/07/01 03:33:33;;;;;;;25.73;11.48;;;;;;;;;;5062627;28;20044;-72
2021/07/01 03:35:59;;;;;;;26.40;12.55;;;;;;;;;;5062981;28;20599;-73
2021/07/01 03:38:25;;;;;;;25.10;11.50;;;;;;;;;;5060815;28;20426;-72
2021/07/01 03:40:52;;;;;;;25.45;10.90;;;;;;;;;;5061534;28;20040;-72
2021/07/01 03:43:18;;;;;;;18.83;10.43;;;;;;;;;;5062652;28;20027;-72
2021/07/01 03:45:45;;;;;;;34.63;11.40;;;;;;;;;;5072667;28;20112;-72
2021/07/01 03:48:11;;;;;;;24.92;10.13;;;;;;;;;;5061736;28;20040;-72
2021/07/01 03:50:38;;;;;;;27.92;10.82;;;;;;;;;;5061596;28;20028;-72
2021/07/01 03:53:04;;;;;;;28.92;10.88;;;;;;;;;;5062409;28;20032;-72
2021/07/01 03:55:31;;;;;;;21.08;10.40;;;;;;;;;;5062327;28;20502;-72
2021/07/01 03:57:57;;;;;;;35.83;11.50;;;;;;;;;;5062767;28;20025;-72
2021/07/01 04:00:23;;;;;;;21.23;10.60;;;;;;;;;;5060685;28;20111;-72
2021/07/01 04:02:50;;;;;;;28.52;10.52;;;;;;;;;;5061637;28;20987;-72
2021/07/01 04:05:16;;;;;;;22.60;10.52;;;;;;;;;;5061139;28;20070;-73
2021/07/01 04:07:42;;;;;;;20.65;10.85;;;;;;;;;;5067196;28;20455;-72
2021/07/01 04:10:12;;;;;;;25.38;10.68;;;;;;;;;;5060375;28;20048;-72
2021/07/01 04:12:38;;;;;;;26.40;10.25;;;;;;;;;;5073192;28;20036;-72
2021/07/01 04:15:05;;;;;;;22.25;9.38;;;;;;;;;;5061851;28;20024;-72
2021/07/01 04:17:31;;;;;;;26.25;10.30;;;;;;;;;;5062037;28;20186;-71
2021/07/01 04:19:58;;;;;;;24.45;9.15;;;;;;;;;;5062550;28;20037;-72
2021/07/01 04:22:25;;;;;;;18.70;8.45;;;;;;;;;;5060408;28;20369;-72
2021/07/01 04:24:52;;;;;;;23.30;9.82;;;;;;;;;;5063289;28;20025;-72
2021/07/01 04:27:18;;;;;;;27.85;10.45;;;;;;;;;;5060876;28;20044;-71
2021/07/01 04:29:44;;;;;;;25.17;9.07;;;;;;;;;;5061292;28;20025;-72
2021/07/01 04:32:10;;;;;;;27.48;9.48;;;;;;;;;;5060002;28;20032;-73
2021/07/01 04:34:37;;;;;;;19.90;9.02;;;;;;;;;;5060273;28;20111;-72
2021/07/01 04:37:04;;;;;;;29.42;9.98;;;;;;;;;;5060569;28;20023;-72
2021/07/01 04:39:30;;;;;;;23.65;9.82;;;;;;;;;;5060896;28;20518;-72
2021/07/01 04:41:56;;;;;;;18.35;8.70;;;;;;;;;;5047460;28;20738;-73
2021/07/01 04:44:22;;;;;;;23.63;8.93;;;;;;;;;;5061089;28;20536;-72
2021/07/01 04:46:48;;;;;;;17.33;8.63;;;;;;;;;;5058500;28;20453;-72
2021/07/01 04:49:14;;;;;;;44.50;9.23;;;;;;;;;;5060990;28;20368;-72
2021/07/01 04:51:42;;;;;;;22.33;7.93;;;;;;;;;;5060758;28;20510;-72
2021/07/01 04:54:08;;;;;;;22.45;7.32;;;;;;;;;;5065286;28;20246;-73
2021/07/01 04:56:43;;;;;;;21.63;8.10;;;;;;;;;;5060699;28;20508;-72
2021/07/01 04:59:19;;;;;;;19.52;7.00;;;;;;;;;;5059621;28;20021;-72
2021/07/01 05:01:45;;;;;;;24.70;7.07;;;;;;;;;;5061116;28;20460;-73
2021/07/01 05:04:12;;;;;;;19.45;8.43;;;;;;;;;;5066687;28;20703;-73
2021/07/01 05:06:39;;;;;;;19.95;5.45;;;;;;;;;;5063476;28;20050;-73
2021/07/01 05:09:09;;;;;;;18.83;5.40;;;;;;;;;;5061001;28;20514;-73
2021/07/01 05:11:35;;;;;;;26.88;9.45;;;;;;;;;;5058426;28;20034;-73
2021/07/01 05:14:01;;;;;;;30.27;11.88;;;;;;;;;;5063142;28;20054;-73
2021/07/01 05:16:28;;;;;;;27.55;11.77;;;;;;;;;;5061041;28;20481;-73
2021/07/01 05:18:55;;;;;;;22.35;11.63;;;;;;;;;;5058257;28;20560;-73
2021/07/01 05:21:21;;;;;;;25.40;10.48;;;;;;;;;;5059842;28;20020;-72
2021/07/01 05:23:47;;;;;;;16.25;8.85;;;;;;;;;;5060236;28;20024;-73
2021/07/01 05:26:13;;;;;;;29.23;8.30;;;;;;;;;;5060736;28;20027;-73
2021/07/01 05:28:40;;;;;;;14.27;6.20;;;;;;;;;;5060507;28;20035;-72
2021/07/01 05:31:06;;;;;;;18.27;8.23;;;;;;;;;;5050812;28;20024;-73
2021/07/01 05:33:32;;;;;;;19.08;10.38;;;;;;;;;;5060076;28;20429;-73
2021/07/01 05:35:58;;;;;;;18.35;10.02;;;;;;;;;;5060153;28;20051;-72
2021/07/01 05:38:25;;;;;;;27.55;12.57;;;;;;;;;;5060145;28;20025;-73
2021/07/01 05:40:51;;;;;;;21.73;10.93;;;;;;;;;;5060216;28;20033;-73
2021/07/01 05:43:17;;;;;;;24.83;11.38;;;;;;;;;;5063200;28;20043;-73
2021/07/01 05:45:43;;;;;;;31.77;11.43;;;;;;;;;;5066026;28;20020;-73
2021/07/01 05:48:11;;;;;;;25.23;10.82;;;;;;;;;;5062300;28;20115;-73
2021/07/01 05:50:49;;;;;;;23.92;9.45;;;;;;;;;;5064563;28;20090;-73
2021/07/01 05:53:25;;;;;;;33.25;11.98;;;;;;;;;;5063569;28;20031;-73
2021/07/01 05:55:51;;;;;;;25.08;8.85;;;;;;;;;;5062687;28;20020;-73
2021/07/01 05:58:17;;;;;;;26.15;11.35;;;;;;;;;;5063858;28;20029;-73
2021/07/01 06:00:44;;;;;;;24.83;10.65;;;;;;;;;;5067397;28;20038;-73
2021/07/01 06:03:10;;;;;;;24.35;9.32;;;;;;;;;;5071010;28;20036;-72
2021/07/01 06:05:37;;;;;;;28.80;10.35;;;;;;;;;;5063473;28;20032;-72
2021/07/01 06:08:05;;;;;;;27.88;9.65;;;;;;;;;;5073479;28;20036;-72
2021/07/01 06:10:32;;;;;;;25.13;9.20;;;;;;;;;;5066032;28;20016;-72
2021/07/01 06:13:00;;;;;;;25.13;9.10;;;;;;;;;;5063395;28;20305;-72
2021/07/01 06:15:27;;;;;;;22.38;10.00;;;;;;;;;;5051453;28;20052;-73
2021/07/01 06:17:53;;;;;;;24.73;9.10;;;;;;;;;;5047019;28;20446;-72
2021/07/01 06:20:19;;;;;;;20.52;8.57;;;;;;;;;;5063646;28;20025;-73
2021/07/01 06:22:46;;;;;;;22.08;8.30;;;;;;;;;;5063928;28;20146;-72
2021/07/01 06:25:12;;;;;;;18.55;7.97;;;;;;;;;;5064577;28;20017;-72
2021/07/01 06:27:39;;;;;;;22.00;8.70;;;;;;;;;;5063315;28;20049;-73
2021/07/01 06:30:10;;;;;;;16.48;7.78;;;;;;;;;;5063522;28;20050;-72
2021/07/01 06:32:44;;;;;;;24.17;9.33;;;;;;;;;;5064002;28;20583;-71
2021/07/01 06:35:12;;;;;;;21.55;7.75;;;;;;;;;;5049797;28;20261;-72
2021/07/01 06:37:39;;;;;;;17.38;7.43;;;;;;;;;;5061964;28;20032;-72
2021/07/01 06:40:06;;;;;;;23.58;8.20;;;;;;;;;;5063646;28;20225;-72
2021/07/01 06:42:34;;;;;;;26.88;8.07;;;;;;;;;;5050532;28;20032;-72
2021/07/01 06:45:02;;;;;;;23.25;7.10;;;;;;;;;;5054344;28;20052;-73
2021/07/01 06:47:28;;;;;;;17.48;7.22;;;;;;;;;;5061925;28;20048;-74
2021/07/01 06:49:55;;;;;;;12.25;5.30;;;;;;;;;;5063288;28;20368;-73
2021/07/01 06:52:21;;;;;;;17.85;6.70;;;;;;;;;;5062588;28;20024;-73
2021/07/01 06:54:48;;;;;;;17.10;7.60;;;;;;;;;;5069853;28;20028;-72
2021/07/01 06:57:14;;;;;;;15.32;6.82;;;;;;;;;;5052837;28;20509;-73
2021/07/01 06:59:41;;;;;;;18.38;5.28;;;;;;;;;;5072569;28;20028;-73
2021/07/01 07:02:08;;;;;;;10.55;4.15;;;;;;;;;;5059335;28;20039;-73
2021/07/01 07:04:35;;;;;;;8.23;4.22;;;;;;;;;;5058466;28;20028;-73
2021/07/01 07:07:04;;;;;;;8.35;3.72;;;;;;;;;;5067429;28;20610;-73
2021/07/01 07:09:30;;;;;;;6.95;3.50;;;;;;;;;;5062270;28;20056;-73
2021/07/01 07:11:56;;;;;;;10.30;3.63;;;;;;;;;;5058521;28;20112;-73
2021/07/01 07:14:23;;;;;;;8.73;3.75;;;;;;;;;;5061665;28;20529;-73
2021/07/01 07:16:49;;;;;;;11.70;3.55;;;;;;;;;;5061978;28;20021;-73
2021/07/01 07:19:17;;;;;;;5.50;2.80;;;;;;;;;;5060295;28;20009;-73
2021/07/01 07:21:45;;;;;;;14.85;3.45;;;;;;;;;;5067677;28;20036;-73
2021/07/01 07:24:13;;;;;;;13.95;3.92;;;;;;;;;;5073015;28;20032;-73
2021/07/01 07:26:39;;;;;;;12.43;3.40;;;;;;;;;;5060369;28;20523;-73
2021/07/01 07:29:08;;;;;;;6.38;2.13;;;;;;;;;;5062430;28;20055;-73
2021/07/01 07:31:38;;;;;;;8.00;3.03;;;;;;;;;;5063920;28;20035;-73
2021/07/01 07:34:05;;;;;;;17.63;4.40;;;;;;;;;;5061941;28;20028;-73
2021/07/01 07:36:31;;;;;;;10.82;3.63;;;;;;;;;;5055800;28;20058;-73
2021/07/01 07:38:58;;;;;;;6.97;3.05;;;;;;;;;;5059315;28;20016;-73
2021/07/01 07:41:25;;;;;;;6.57;3.55;;;;;;;;;;5063707;28;20111;-73
2021/07/01 07:43:51;;;;;;;6.25;2.85;;;;;;;;;;5044180;28;20031;-73
2021/07/01 07:46:19;;;;;;;10.68;3.55;;;;;;;;;;5062147;28;20043;-73
2021/07/01 07:48:45;;;;;;;8.95;3.45;;;;;;;;;;5061678;28;20369;-73
2021/07/01 07:51:14;;;;;;;8.52;3.72;;;;;;;;;;5060131;28;20021;-72
2021/07/01 07:53:41;;;;;;;16.70;5.70;;;;;;;;;;5061588;28;20021;-73
2021/07/01 07:56:09;;;;;;;12.82;4.18;;;;;;;;;;5064243;28;20286;-73
2021/07/01 07:58:39;;;;;;;7.68;3.60;;;;;;;;;;5063488;28;20485;-73
2021/07/01 08:01:07;;;;;;;12.85;5.03;;;;;;;;;;5059877;28;20051;-73
2021/07/01 08:03:34;;;;;;;19.83;5.43;;;;;;;;;;5064461;28;20362;-73
2021/07/01 08:06:01;;;;;;;12.40;4.35;;;;;;;;;;5062316;28;20028;-71
2021/07/01 08:08:29;;;;;;;7.32;3.08;;;;;;;;;;5058148;28;20317;-70
2021/07/01 08:10:55;;;;;;;5.78;2.42;;;;;;;;;;5062064;28;20060;-71
2021/07/01 08:13:22;;;;;;;7.07;2.53;;;;;;;;;;5060944;28;20259;-71
2021/07/01 08:15:48;;;;;;;11.65;2.40;;;;;;;;;;5060927;28;20435;-71
2021/07/01 08:18:21;;;;;;;4.40;2.08;;;;;;;;;;5062683;28;20484;-71
2021/07/01 08:20:48;;;;;;;3.25;2.00;;;;;;;;;;5060731;28;20403;-72
2021/07/01 08:23:14;;;;;;;11.07;3.22;;;;;;;;;;5060400;28;20023;-71
2021/07/01 08:25:41;;;;;;;14.98;4.28;;;;;;;;;;5058701;28;20491;-73
2021/07/01 08:28:09;;;;;;;12.27;3.55;;;;;;;;;;5060381;28;20472;-71
2021/07/01 08:30:35;;;;;;;12.85;3.38;;;;;;;;;;5060146;28;20199;-71
2021/07/01 08:33:01;;;;;;;15.25;3.63;;;;;;;;;;5062380;28;20036;-72
2021/07/01 08:35:28;;;;;;;8.73;3.58;;;;;;;;;;5061266;28;20021;-72
2021/07/01 08:37:57;;;;;;;17.50;4.47;;;;;;;;;;5058091;28;20472;-72
2021/07/01 08:40:30;;;;;;;8.43;3.45;;;;;;;;;;5060804;28;20078;-72
2021/07/01 08:42:57;;;;;;;5.13;1.83;;;;;;;;;;5057712;28;20032;-70
2021/07/01 08:45:27;;;;;;;10.88;4.60;;;;;;;;;;5062891;28;20039;-70
2021/07/01 08:48:00;;;;;;;12.95;6.75;;;;;;;;;;5060757;28;20025;-71
2021/07/01 08:50:29;;;;;;;10.32;5.15;;;;;;;;;;5041194;28;20029;-71
2021/07/01 08:52:58;;;;;;;8.55;4.63;;;;;;;;;;5059448;28;20333;-70
2021/07/01 08:55:26;;;;;;;7.20;3.95;;;;;;;;;;5059948;28;20059;-71
2021/07/01 08:57:54;;;;;;;15.25;4.25;;;;;;;;;;5060092;28;20064;-72
2021/07/01 09:00:20;;;;;;;3.60;2.25;;;;;;;;;;5058771;28;20466;-70
2021/07/01 09:03:04;;;;;;;5.07;2.00;;;;;;;;;;5058429;28;20172;-71
2021/07/01 09:05:34;;;;;;;5.07;2.00;;;;;;;;;;5059691;28;20530;-71
2021/07/01 09:08:02;;;;;;;3.65;2.10;;;;;;;;;;5059859;28;20028;-71
2021/07/01 09:10:30;;;;;;;4.32;1.90;;;;;;;;;;5059025;28;20036;-71
2021/07/01 09:13:00;;;;;;;5.47;1.92;;;;;;;;;;5059958;28;20485;-71
2021/07/01 09:15:27;;;;;;;3.80;1.77;;;;;;;;;;5059723;28;20017;-71
2021/07/01 09:17:54;;;;;;;5.05;1.75;;;;;;;;;;5059313;28;20020;-71
2021/07/01 09:20:27;;;;;;;3.60;1.80;;;;;;;;;;5057455;28;20135;-71
2021/07/01 09:22:57;;;;;;;5.15;2.30;;;;;;;;;;5056650;28;20485;-71
2021/07/01 09:25:24;;;;;;;3.70;1.57;;;;;;;;;;5060471;28;20481;-71
2021/07/01 09:27:51;;;;;;;4.20;1.75;;;;;;;;;;5059581;28;20593;-71
2021/07/01 09:30:24;;;;;;;3.63;1.95;;;;;;;;;;5059021;28;20368;-70
2021/07/01 09:32:53;;;;;;;8.00;3.78;;;;;;;;;;5058895;28;20033;-70
2021/07/01 09:35:19;;;;;;;11.70;3.60;;;;;;;;;;5059957;28;20368;-71
2021/07/01 09:37:47;;;;;;;5.15;3.20;;;;;;;;;;5061731;28;20020;-71
2021/07/01 09:40:15;;;;;;;8.80;3.13;;;;;;;;;;5059739;28;20028;-71
2021/07/01 09:42:42;;;;;;;6.68;2.97;;;;;;;;;;5059986;28;20028;-71
2021/07/01 09:45:09;;;;;;;8.35;3.72;;;;;;;;;;5060711;28;20035;-71
2021/07/01 09:47:37;;;;;;;7.90;3.15;;;;;;;;;;5058260;28;20032;-71
2021/07/01 09:50:04;;;;;;;13.75;3.20;;;;;;;;;;5056172;28;20032;-70
2021/07/01 09:52:34;;;;;;;9.07;2.97;;;;;;;;;;5059310;28;20465;-70
2021/07/01 09:55:01;;;;;;;7.15;2.85;;;;;;;;;;5068434;28;20868;-71
2021/07/01 09:57:28;;;;;;;4.45;2.40;;;;;;;;;;5056216;28;20048;-72
2021/07/01 09:59:58;;;;;;;6.53;2.70;;;;;;;;;;5061207;28;20087;-70
2021/07/01 10:02:24;;;;;;;6.47;2.50;;;;;;;;;;5071240;28;20093;-70
2021/07/01 10:04:51;;;;;;;13.00;3.13;;;;;;;;;;5068340;28;20435;-70
2021/07/01 10:07:21;;;;;;;5.32;2.33;;;;;;;;;;5064218;28;20020;-70
2021/07/01 10:09:50;;;;;;;7.50;2.60;;;;;;;;;;5065774;28;20032;-71
2021/07/01 10:12:26;;;;;;;6.93;3.22;;;;;;;;;;5062686;28;20336;-70
2021/07/01 10:14:57;;;;;;;6.20;3.17;;;;;;;;;;5068113;28;20130;-71
2021/07/01 10:17:24;;;;;;;6.07;2.60;;;;;;;;;;5057554;28;20513;-70
2021/07/01 10:19:51;;;;;;;4.53;2.25;;;;;;;;;;5059766;28;20032;-70
2021/07/01 10:22:20;;;;;;;6.68;2.45;;;;;;;;;;5058323;28;20123;-70
2021/07/01 10:24:52;;;;;;;4.28;2.40;;;;;;;;;;5064357;28;20016;-71
2021/07/01 10:27:39;;;;;;;6.57;2.60;;;;;;;;;;5059774;28;20063;-71
2021/07/01 10:30:16;;;;;;;5.82;2.50;;;;;;;;;;5063299;28;20510;-71
2021/07/01 10:32:44;;;;;;;3.67;2.20;;;;;;;;;;5064042;28;20025;-71
2021/07/01 10:35:19;;;;;;;8.40;3.00;;;;;;;;;;5064842;28;20028;-74
2021/07/01 10:38:04;;;;;;;8.35;2.50;;;;;;;;;;5069590;28;20042;-71
2021/07/01 10:40:31;;;;;;;5.38;2.45;;;;;;;;;;5054322;28;20110;-73
2021/07/01 10:42:58;;;;;;;4.70;2.30;;;;;;;;;;5062260;28;20081;-73
2021/07/01 10:45:25;;;;;;;7.00;2.60;;;;;;;;;;5065041;28;20036;-73
2021/07/01 10:47:54;;;;;;;5.35;2.50;;;;;;;;;;5063586;28;20157;-73
2021/07/01 10:50:20;;;;;;;5.93;2.60;;;;;;;;;;5063896;28;20110;-73
2021/07/01 10:52:47;;;;;;;8.13;2.65;;;;;;;;;;5061760;28;20024;-73
2021/07/01 10:55:14;;;;;;;5.00;2.50;;;;;;;;;;5063729;28;20542;-77
2021/07/01 10:57:52;;;;;;;5.10;2.33;;;;;;;;;;5063213;28;20030;-73
2021/07/01 11:00:18;;;;;;;4.90;2.50;;;;;;;;;;5064784;28;20100;-73
2021/07/01 11:02:49;;;;;;;6.88;2.75;;;;;;;;;;5069926;28;20021;-73
2021/07/01 11:05:16;;;;;;;7.68;2.58;;;;;;;;;;5061877;28;20020;-73
2021/07/01 11:07:42;;;;;;;5.95;2.75;;;;;;;;;;5063333;28;20055;-73
2021/07/01 11:10:08;;;;;;;4.63;2.53;;;;;;;;;;5062678;28;20093;-73
2021/07/01 11:12:41;;;;;;;8.27;2.90;;;;;;;;;;5063181;28;20024;-73
2021/07/01 11:15:08;;;;;;;5.63;2.47;;;;;;;;;;5062697;28;20823;-72
2021/07/01 11:17:39;;;;;;;5.97;2.45;;;;;;;;;;5067970;28;20029;-73
2021/07/01 11:20:32;;;;;;;6.93;2.58;;;;;;;;;;5063033;28;20039;-73
2021/07/01 11:22:58;;;;;;;6.13;2.78;;;;;;;;;;5065673;28;20035;-73
2021/07/01 11:25:27;;;;;;;7.38;2.83;;;;;;;;;;5069400;28;20039;-73
2021/07/01 11:28:13;;;;;;;4.63;2.58;;;;;;;;;;5060844;28;20052;-72
2021/07/01 11:30:47;;;;;;;4.25;2.60;;;;;;;;;;5062144;28;20032;-72
2021/07/01 11:33:14;;;;;;;5.93;3.00;;;;;;;;;;5059833;28;20029;-73
2021/07/01 11:35:40;;;;;;;4.18;2.63;;;;;;;;;;5068425;28;20103;-73
2021/07/01 11:38:23;;;;;;;7.20;2.75;;;;;;;;;;5051838;28;20056;-74
2021/07/01 11:40:49;;;;;;;6.25;2.92;;;;;;;;;;5060653;28;20109;-73
2021/07/01 11:43:16;;;;;;;6.32;3.08;;;;;;;;;;5062467;28;20175;-73
2021/07/01 11:45:42;;;;;;;5.43;2.50;;;;;;;;;;5062555;28;20050;-73
2021/07/01 11:48:09;;;;;;;8.70;3.08;;;;;;;;;;5062418;28;20032;-73
2021/07/01 11:50:35;;;;;;;8.85;3.15;;;;;;;;;;5061236;28;20602;-73
2021/07/01 11:53:02;;;;;;;5.05;2.50;;;;;;;;;;5060812;28;20573;-73
2021/07/01 11:55:28;;;;;;;10.27;2.65;;;;;;;;;;5049062;28;20077;-72
2021/07/01 11:57:55;;;;;;;8.00;2.97;;;;;;;;;;5060069;28;20035;-72
2021/07/01 12:00:23;;;;;;;6.55;2.67;;;;;;;;;;5062444;28;20077;-72
2021/07/01 12:02:50;;;;;;;5.40;2.67;;;;;;;;;;5062133;28;20013;-72
2021/07/01 12:05:16;;;;;;;5.55;2.78;;;;;;;;;;5038238;28;20416;-72
2021/07/01 12:07:43;;;;;;;4.28;2.65;;;;;;;;;;5060477;28;20407;-73
2021/07/01 12:10:10;;;;;;;3.72;2.53;;;;;;;;;;5066310;28;20029;-73
2021/07/01 12:12:38;;;;;;;4.78;2.83;;;;;;;;;;5044061;28;20055;-71
2021/07/01 12:15:06;;;;;;;5.28;2.30;;;;;;;;;;5063574;28;20456;-72
2021/07/01 12:17:56;;;;;;;5.20;2.10;;;;;;;;;;5067638;28;20039;-72
2021/07/01 12:20:40;;;;;;;13.27;3.10;;;;;;;;;;5053211;28;20029;-72
2021/07/01 12:23:13;;;;;;;5.80;2.78;;;;;;;;;;5061432;28;20033;-71
2021/07/01 12:25:39;;;;;;;5.80;2.53;;;;;;;;;;5064295;28;20024;-70
2021/07/01 12:28:09;;;;;;;5.53;2.60;;;;;;;;;;5061271;28;20090;-71
2021/07/01 12:30:51;;;;;;;7.93;2.88;;;;;;;;;;5060729;28;20033;-71
2021/07/01 12:33:36;;;;;;;5.32;2.30;;;;;;;;;;5053572;28;20032;-71
2021/07/01 12:36:08;;;;;;;5.05;2.65;;;;;;;;;;5061744;28;20169;-72
2021/07/01 12:38:35;;;;;;;7.75;2.72;;;;;;;;;;5059282;28;20020;-71
2021/07/01 12:41:02;;;;;;;7.13;2.70;;;;;;;;;;5060250;28;20067;-73
2021/07/01 12:43:48;;;;;;;5.78;2.35;;;;;;;;;;5061345;28;20388;-71
2021/07/01 12:46:34;;;;;;;6.90;2.67;;;;;;;;;;5062891;28;20021;-70
2021/07/01 12:49:00;;;;;;;9.02;2.40;;;;;;;;;;5029610;28;20044;-74
2021/07/01 12:51:42;;;;;;;4.93;2.17;;;;;;;;;;5066922;28;20039;-73
2021/07/01 12:54:18;;;;;;;3.72;2.58;;;;;;;;;;5060114;28;20032;-71
2021/07/01 12:56:44;;;;;;;6.57;2.42;;;;;;;;;;5061867;28;20145;-74
2021/07/01 12:59:10;;;;;;;4.65;2.42;;;;;;;;;;5059854;28;20254;-74
2021/07/01 13:01:36;;;;;;;6.03;2.55;;;;;;;;;;5063395;28;20049;-72
2021/07/01 13:04:03;;;;;;;6.25;2.50;;;;;;;;;;5047302;28;20040;-73
2021/07/01 13:06:29;;;;;;;4.05;2.15;;;;;;;;;;5066524;28;20099;-72
2021/07/01 13:08:55;;;;;;;7.78;2.67;;;;;;;;;;5059233;28;20040;-74
2021/07/01 13:11:21;;;;;;;3.05;2.10;;;;;;;;;;5061329;28;20031;-74
2021/07/01 13:13:57;;;;;;;5.38;2.67;;;;;;;;;;5060932;28;20013;-75
2021/07/01 13:16:23;;;;;;;6.13;2.40;;;;;;;;;;5061191;28;20146;-73
2021/07/01 13:18:49;;;;;;;5.07;2.25;;;;;;;;;;5068421;28;20053;-74
2021/07/01 13:21:15;;;;;;;3.22;2.30;;;;;;;;;;5059481;28;20023;-73
2021/07/01 13:23:41;;;;;;;3.10;2.25;;;;;;;;;;5062000;28;20040;-73
2021/07/01 13:26:14;;;;;;;5.13;2.78;;;;;;;;;;5062953;28;20574;-72
2021/07/01 13:28:40;;;;;;;5.20;2.10;;;;;;;;;;5038722;28;20185;-73
2021/07/01 13:31:07;;;;;;;6.57;2.45;;;;;;;;;;5060189;28;20070;-73
2021/07/01 13:33:33;;;;;;;4.70;2.58;;;;;;;;;;5060310;28;20644;-75
2021/07/01 13:35:59;;;;;;;3.60;2.05;;;;;;;;;;5060648;28;20033;-74
2021/07/01 13:38:26;;;;;;;5.30;2.05;;;;;;;;;;5062285;28;20024;-72
2021/07/01 13:40:53;;;;;;;3.38;2.20;;;;;;;;;;5065541;28;20523;-72
2021/07/01 13:43:20;;;;;;;5.22;1.88;;;;;;;;;;5064480;28;20020;-72
2021/07/01 13:45:48;;;;;;;6.90;2.60;;;;;;;;;;5071082;28;20624;-74
2021/07/01 13:48:17;;;;;;;4.68;2.38;;;;;;;;;;5064996;28;20115;-74
2021/07/01 13:50:49;;;;;;;7.60;2.10;;;;;;;;;;5036746;28;20840;-74
2021/07/01 13:53:17;;;;;;;8.85;2.55;;;;;;;;;;5062094;28;20491;-73
2021/07/01 13:55:44;;;;;;;8.32;2.05;;;;;;;;;;5060312;28;20033;-73
2021/07/01 13:58:11;;;;;;;5.00;2.30;;;;;;;;;;5063808;28;20021;-73
2021/07/01 14:00:58;;;;;;;5.95;2.95;;;;;;;;;;5067977;28;20381;-71
2021/07/01 14:03:31;;;;;;;3.45;1.98;;;;;;;;;;5048748;28;20056;-72
2021/07/01 14:06:04;;;;;;;6.22;2.50;;;;;;;;;;5064977;28;20062;-71
2021/07/01 14:08:34;;;;;;;7.75;2.47;;;;;;;;;;5063949;28;20120;-71
2021/07/01 14:11:08;;;;;;;7.05;2.25;;;;;;;;;;5064293;28;20554;-71
2021/07/01 14:13:41;;;;;;;5.38;2.47;;;;;;;;;;5064327;28;20017;-72
2021/07/01 14:16:08;;;;;;;8.52;2.70;;;;;;;;;;5064595;28;20028;-71
2021/07/01 14:18:39;;;;;;;7.22;2.55;;;;;;;;;;5067638;28;20020;-71
2021/07/01 14:21:06;;;;;;;6.97;2.30;;;;;;;;;;5063611;28;20035;-71
2021/07/01 14:23:33;;;;;;;9.40;3.10;;;;;;;;;;5064514;28;20056;-71
2021/07/01 14:26:11;;;;;;;6.30;2.60;;;;;;;;;;5077592;28;20031;-72
2021/07/01 14:28:37;;;;;;;5.57;2.65;;;;;;;;;;5054433;28;20047;-71
2021/07/01 14:31:18;;;;;;;8.90;2.72;;;;;;;;;;5064090;28;20031;-71
2021/07/01 14:33:45;;;;;;;6.28;2.15;;;;;;;;;;5065954;28;20074;-71
2021/07/01 14:36:15;;;;;;;4.07;2.05;;;;;;;;;;5049730;28;20126;-72